createdAt,value
2023-01-29T00:01:59.670Z,57.88
2023-01-29T00:04:26.665Z,57.94
2023-01-29T00:06:53.982Z,57.81
2023-01-29T00:09:21.077Z,57.77
2023-01-29T00:11:48.376Z,58.06
2023-01-29T00:14:15.625Z,58.31
2023-01-29T00:16:42.904Z,58.23
2023-01-29T00:19:09.952Z,57.43
2023-01-29T00:21:37.352Z,57.56
2023-01-29T00:24:04.676Z,57.03
2023-01-29T00:26:31.869Z,57.15
2023-01-29T00:29:00.693Z,57.29
2023-01-29T00:31:28.153Z,57.32
2023-01-29T00:33:55.391Z,57.49
2023-01-29T00:36:23.048Z,56.42
2023-01-29T00:38:58.889Z,56.47
2023-01-29T00:41:49.305Z,56.40
2023-01-29T00:44:35.372Z,56.89
2023-01-29T00:47:04.075Z,56.96
2023-01-29T00:49:31.346Z,57.34
2023-01-29T00:52:17.424Z,57.33
2023-01-29T00:54:44.489Z,56.97
2023-01-29T00:57:11.509Z,57.07
2023-01-29T00:59:38.543Z,57.59
2023-01-29T01:02:23.959Z,57.62
2023-01-29T01:04:51.065Z,57.41
2023-01-29T01:07:18.240Z,57.76
2023-01-29T01:10:03.582Z,57.58
2023-01-29T01:12:31.523Z,57.54
2023-01-29T01:14:58.535Z,57.13
2023-01-29T01:17:25.859Z,57.00
2023-01-29T01:19:52.899Z,57.62
2023-01-29T01:22:20.295Z,56.93
2023-01-29T01:24:47.326Z,56.91
2023-01-29T01:27:14.426Z,56.81
2023-01-29T01:29:41.478Z,56.73
2023-01-29T01:32:08.696Z,56.10
2023-01-29T01:34:36.099Z,55.65
2023-01-29T01:37:03.196Z,55.87
2023-01-29T01:39:30.317Z,55.60
2023-01-29T01:41:57.368Z,55.01
2023-01-29T01:44:56.949Z,54.73
2023-01-29T01:47:32.729Z,53.46
2023-01-29T01:50:44.645Z,53.70
2023-01-29T01:53:19.262Z,53.40
2023-01-29T01:55:52.773Z,54.04
2023-01-29T01:58:34.930Z,54.14
2023-01-29T02:01:07.475Z,54.52
2023-01-29T02:04:02.222Z,54.30
2023-01-29T02:06:48.720Z,54.30
2023-01-29T02:09:37.861Z,54.71
2023-01-29T02:12:12.169Z,54.10
2023-01-29T02:14:40.899Z,53.59
2023-01-29T02:17:28.046Z,53.88
2023-01-29T02:20:01.226Z,53.94
2023-01-29T02:22:56.200Z,53.94
2023-01-29T02:25:48.575Z,53.25
2023-01-29T02:28:30.843Z,54.12
2023-01-29T02:31:38.428Z,53.83
2023-01-29T02:34:24.770Z,54.32
2023-01-29T02:37:03.308Z,53.46
2023-01-29T02:39:45.390Z,52.93
2023-01-29T02:42:27.433Z,53.23
2023-01-29T02:45:18.398Z,53.34
2023-01-29T02:47:48.282Z,52.98
2023-01-29T02:50:31.290Z,52.13
2023-01-29T02:53:19.101Z,52.37
2023-01-29T02:55:56.330Z,52.28
2023-01-29T02:58:46.279Z,53.20
2023-01-29T03:01:36.062Z,52.86
2023-01-29T03:04:11.576Z,52.82
2023-01-29T03:06:44.000Z,52.36
2023-01-29T03:09:20.047Z,52.97
2023-01-29T03:11:53.028Z,53.09
2023-01-29T03:14:51.560Z,52.86
2023-01-29T03:17:22.704Z,52.34
2023-01-29T03:19:51.067Z,52.85
2023-01-29T03:22:23.517Z,52.78
2023-01-29T03:25:15.696Z,53.01
2023-01-29T03:28:12.013Z,52.37
2023-01-29T03:31:14.075Z,52.38
2023-01-29T03:33:59.949Z,51.76
2023-01-29T03:36:40.019Z,51.91
2023-01-29T03:39:09.670Z,52.34
2023-01-29T03:41:40.560Z,51.47
2023-01-29T03:44:07.639Z,51.79
2023-01-29T03:46:50.748Z,51.75
2023-01-29T03:49:47.747Z,52.34
2023-01-29T03:52:23.098Z,50.85
2023-01-29T03:55:07.044Z,51.32
2023-01-29T03:57:36.644Z,51.21
2023-01-29T04:00:37.067Z,51.49
2023-01-29T04:03:18.022Z,51.76
2023-01-29T04:05:58.711Z,51.87
2023-01-29T04:08:36.180Z,51.71
2023-01-29T04:11:10.774Z,52.12
2023-01-29T04:13:39.209Z,52.68
2023-01-29T04:16:11.888Z,52.45
2023-01-29T04:18:56.814Z,51.93
2023-01-29T04:21:32.141Z,52.34
2023-01-29T04:23:59.829Z,52.62
2023-01-29T04:26:57.896Z,52.67
2023-01-29T04:29:54.613Z,53.05
2023-01-29T04:32:27.524Z,53.33
2023-01-29T04:35:16.674Z,52.80
2023-01-29T04:38:06.426Z,52.85
2023-01-29T04:41:02.455Z,52.78
2023-01-29T04:44:00.608Z,52.19
2023-01-29T04:47:01.868Z,52.54
2023-01-29T04:49:47.775Z,52.44
2023-01-29T04:53:10.683Z,52.60
2023-01-29T04:55:48.680Z,52.70
2023-01-29T04:58:34.243Z,52.71
2023-01-29T05:01:04.960Z,53.16
2023-01-29T05:03:34.403Z,53.02
2023-01-29T05:06:02.818Z,53.16
2023-01-29T05:08:32.097Z,53.15
2023-01-29T05:11:00.247Z,53.28
2023-01-29T05:13:31.843Z,53.53
2023-01-29T05:16:28.112Z,53.87
2023-01-29T05:18:55.591Z,53.95
2023-01-29T05:21:23.798Z,53.99
2023-01-29T05:24:20.287Z,53.34
2023-01-29T05:27:07.975Z,53.92
2023-01-29T05:29:35.073Z,53.76
2023-01-29T05:32:03.689Z,53.78
2023-01-29T05:34:30.759Z,53.69
2023-01-29T05:36:57.790Z,53.95
2023-01-29T05:39:24.880Z,53.59
2023-01-29T05:41:52.031Z,54.11
2023-01-29T05:44:19.080Z,54.13
2023-01-29T05:47:04.904Z,54.40
2023-01-29T05:49:31.926Z,54.04
2023-01-29T05:51:58.929Z,54.36
2023-01-29T05:54:25.965Z,54.67
2023-01-29T05:56:53.097Z,54.19
2023-01-29T05:59:20.318Z,54.15
2023-01-29T06:01:47.350Z,54.25
2023-01-29T06:04:14.400Z,54.42
2023-01-29T06:06:41.352Z,54.07
2023-01-29T06:09:10.814Z,54.75
2023-01-29T06:11:37.820Z,54.69
2023-01-29T06:14:04.987Z,54.59
2023-01-29T06:16:32.092Z,54.65
2023-01-29T06:18:59.218Z,54.85
2023-01-29T06:21:26.318Z,54.70
2023-01-29T06:23:53.967Z,54.68
2023-01-29T06:26:21.127Z,54.85
2023-01-29T06:28:51.264Z,54.58
2023-01-29T06:31:38.303Z,53.96
2023-01-29T06:34:07.423Z,53.91
2023-01-29T06:36:34.674Z,54.20
2023-01-29T06:39:01.800Z,53.68
2023-01-29T06:41:29.176Z,54.37
2023-01-29T06:43:56.208Z,54.77
2023-01-29T06:46:23.261Z,54.17
2023-01-29T06:48:50.283Z,54.76
2023-01-29T06:51:17.481Z,54.48
2023-01-29T06:53:46.181Z,54.38
2023-01-29T06:56:13.929Z,54.05
2023-01-29T06:58:41.547Z,53.80
2023-01-29T07:01:11.726Z,54.04
2023-01-29T07:03:42.622Z,53.90
2023-01-29T07:06:10.107Z,52.99
2023-01-29T07:08:40.304Z,53.36
2023-01-29T07:11:08.072Z,53.14
2023-01-29T07:13:38.251Z,53.40
2023-01-29T07:16:06.754Z,52.82
2023-01-29T07:18:33.813Z,53.74
2023-01-29T07:21:05.480Z,52.82
2023-01-29T07:23:34.698Z,53.39
2023-01-29T07:26:06.461Z,53.08
2023-01-29T07:28:38.365Z,52.66
2023-01-29T07:31:06.437Z,52.69
2023-01-29T07:33:34.116Z,52.37
2023-01-29T07:36:01.173Z,52.26
2023-01-29T07:38:28.313Z,52.66
2023-01-29T07:40:55.553Z,52.72
2023-01-29T07:43:24.931Z,52.97
2023-01-29T07:45:52.316Z,52.72
2023-01-29T07:48:19.685Z,52.39
2023-01-29T07:50:55.507Z,52.05
2023-01-29T07:53:23.151Z,52.44
2023-01-29T07:55:50.265Z,52.65
2023-01-29T07:58:17.361Z,52.27
2023-01-29T08:00:45.034Z,51.92
2023-01-29T08:03:16.283Z,52.05
2023-01-29T08:05:44.606Z,52.40
2023-01-29T08:08:12.238Z,51.58
2023-01-29T08:10:40.506Z,50.96
2023-01-29T08:13:08.343Z,51.48
2023-01-29T08:15:38.053Z,51.63
2023-01-29T08:18:09.911Z,52.13
2023-01-29T08:20:36.965Z,52.01
2023-01-29T08:23:08.991Z,52.07
2023-01-29T08:25:36.863Z,52.91
2023-01-29T08:28:04.508Z,52.69
2023-01-29T08:30:34.333Z,51.73
2023-01-29T08:33:03.074Z,52.44
2023-01-29T08:35:30.218Z,50.77
2023-01-29T08:37:59.850Z,51.16
2023-01-29T08:40:32.372Z,52.01
2023-01-29T08:43:06.899Z,52.21
2023-01-29T08:45:37.613Z,51.13
2023-01-29T08:48:04.983Z,50.14
2023-01-29T08:50:33.150Z,50.48
2023-01-29T08:53:01.880Z,50.32
2023-01-29T08:55:29.299Z,50.38
2023-01-29T08:57:59.506Z,50.51
2023-01-29T09:00:26.760Z,50.35
2023-01-29T09:02:53.873Z,50.23
2023-01-29T09:05:21.214Z,49.90
2023-01-29T09:07:48.252Z,50.15
2023-01-29T09:10:16.271Z,50.85
2023-01-29T09:12:43.494Z,50.29
2023-01-29T09:15:11.158Z,50.53
2023-01-29T09:17:38.155Z,50.54
2023-01-29T09:20:06.350Z,50.84
2023-01-29T09:22:33.918Z,51.38
2023-01-29T09:25:00.939Z,50.98
2023-01-29T09:27:28.162Z,50.41
2023-01-29T09:29:55.120Z,50.48
2023-01-29T09:32:49.848Z,50.38
2023-01-29T09:35:10.115Z,50.96
2023-01-29T09:37:37.157Z,50.18
2023-01-29T09:40:04.511Z,50.21
2023-01-29T09:42:41.972Z,50.23
2023-01-29T09:45:21.161Z,50.33
2023-01-29T09:47:48.957Z,50.22
2023-01-29T09:50:24.167Z,50.63
2023-01-29T09:53:02.743Z,50.54
2023-01-29T09:55:43.971Z,50.28
2023-01-29T09:58:19.589Z,50.13
2023-01-29T10:01:08.371Z,50.75
2023-01-29T10:03:53.073Z,51.02
2023-01-29T10:06:58.074Z,51.18
2023-01-29T10:09:48.024Z,50.97
2023-01-29T10:12:59.428Z,50.42
2023-01-29T10:15:57.279Z,51.23
2023-01-29T10:18:54.999Z,50.66
2023-01-29T10:21:30.956Z,51.24
2023-01-29T10:24:11.388Z,51.42
2023-01-29T10:26:40.797Z,51.54
2023-01-29T10:29:08.868Z,51.42
2023-01-29T10:31:40.649Z,51.41
2023-01-29T10:34:11.597Z,51.12
2023-01-29T10:36:47.789Z,50.45
2023-01-29T10:39:20.664Z,50.74
2023-01-29T10:42:06.154Z,51.16
2023-01-29T10:45:02.914Z,50.57
2023-01-29T10:47:55.575Z,51.01
2023-01-29T10:50:40.960Z,50.93
2023-01-29T10:53:37.746Z,51.18
2023-01-29T10:56:23.406Z,51.66
2023-01-29T10:58:58.916Z,50.81
2023-01-29T11:01:27.094Z,51.04
2023-01-29T11:04:00.939Z,52.00
2023-01-29T11:06:36.840Z,51.41
2023-01-29T11:09:17.017Z,51.29
2023-01-29T11:11:52.703Z,51.65
2023-01-29T11:14:55.822Z,51.37
2023-01-29T11:17:40.617Z,52.36
2023-01-29T11:31:38.426Z,52.09
2023-01-29T11:34:31.880Z,52.01
2023-01-29T11:40:36.967Z,51.85
2023-01-29T11:43:51.325Z,51.09
2023-01-29T11:46:18.754Z,51.69
2023-01-29T11:49:20.655Z,51.40
2023-01-29T11:52:16.211Z,51.54
2023-01-29T11:55:04.321Z,52.15
2023-01-29T11:58:25.599Z,51.80
2023-01-29T12:01:00.217Z,51.96
2023-01-29T12:04:28.742Z,51.91
2023-01-29T12:11:36.823Z,52.04
2023-01-29T12:17:47.559Z,51.51
2023-01-29T12:21:19.321Z,51.84
2023-01-29T12:24:21.812Z,52.09
2023-01-29T12:27:41.500Z,52.27
2023-01-29T12:31:38.831Z,52.53
2023-01-29T12:34:43.113Z,52.34
2023-01-29T12:37:20.703Z,53.14
2023-01-29T12:39:49.541Z,53.33
2023-01-29T12:46:11.795Z,53.16
2023-01-29T12:48:57.406Z,53.66
2023-01-29T12:52:04.936Z,53.84
2023-01-29T12:54:57.383Z,54.08
2023-01-29T12:57:49.474Z,53.50
2023-01-29T13:04:05.740Z,54.61
2023-01-29T13:06:46.827Z,53.88
2023-01-29T13:09:27.816Z,53.78
2023-01-29T13:11:59.922Z,54.84
2023-01-29T13:14:41.619Z,54.18
2023-01-29T13:17:21.603Z,54.48
2023-01-29T13:19:55.224Z,54.05
2023-01-29T13:22:30.569Z,53.94
2023-01-29T13:25:04.602Z,54.09
2023-01-29T13:27:39.985Z,54.11
2023-01-29T13:30:09.444Z,53.58
2023-01-29T13:32:37.313Z,54.34
2023-01-29T13:35:13.274Z,54.61
2023-01-29T13:37:48.886Z,54.81
2023-01-29T13:40:31.466Z,54.31
2023-01-29T13:43:00.601Z,54.92
2023-01-29T13:45:33.960Z,55.56
2023-01-29T13:48:22.125Z,54.94
2023-01-29T13:50:55.634Z,55.10
2023-01-29T13:53:30.337Z,55.19
2023-01-29T13:56:30.910Z,55.14
2023-01-29T13:58:58.849Z,55.12
2023-01-29T14:01:49.147Z,54.92
2023-01-29T14:04:19.002Z,55.16
2023-01-29T14:06:49.369Z,55.42
2023-01-29T14:09:38.717Z,55.29
2023-01-29T14:12:26.024Z,55.61
2023-01-29T14:14:56.828Z,56.01
2023-01-29T14:17:27.099Z,55.72
2023-01-29T14:20:04.449Z,56.24
2023-01-29T14:22:33.865Z,56.53
2023-01-29T14:25:05.184Z,56.14
2023-01-29T14:27:33.508Z,56.19
2023-01-29T14:30:12.325Z,56.61
2023-01-29T14:32:40.775Z,56.80
2023-01-29T14:35:23.296Z,56.97
2023-01-29T14:37:56.767Z,57.14
2023-01-29T14:40:26.437Z,57.38
2023-01-29T14:43:08.987Z,57.31
2023-01-29T14:45:44.837Z,57.23
2023-01-29T14:49:20.628Z,58.04
2023-01-29T14:53:40.724Z,57.56
2023-01-29T14:59:12.406Z,57.64
2023-01-29T15:01:43.925Z,57.85
2023-01-29T15:04:13.847Z,57.78
2023-01-29T15:06:47.726Z,57.78
2023-01-29T15:09:22.071Z,58.02
2023-01-29T15:15:54.964Z,58.74
2023-01-29T15:22:29.869Z,58.71
2023-01-29T15:25:51.069Z,58.67
2023-01-29T15:28:23.489Z,58.71
2023-01-29T15:30:55.081Z,59.34
2023-01-29T15:33:22.586Z,59.75
2023-01-29T15:36:05.745Z,60.31
2023-01-29T15:38:33.854Z,60.08
2023-01-29T15:41:04.015Z,60.71
2023-01-29T15:43:44.729Z,60.33
2023-01-29T15:46:18.117Z,60.87
2023-01-29T15:48:56.598Z,62.26
2023-01-29T15:51:28.241Z,62.19
2023-01-29T15:53:58.493Z,61.83
2023-01-29T15:56:29.478Z,61.38
2023-01-29T15:59:01.361Z,60.33
2023-01-29T16:01:38.156Z,60.38
2023-01-29T16:04:11.796Z,60.52
2023-01-29T16:06:48.296Z,59.91
2023-01-29T16:09:32.925Z,60.43
2023-01-29T16:12:09.529Z,60.54
2023-01-29T16:14:46.813Z,60.03
2023-01-29T16:17:50.730Z,60.13
2023-01-29T16:21:00.166Z,60.69
2023-01-29T16:23:54.749Z,60.94
2023-01-29T16:26:34.551Z,60.51
2023-01-29T16:29:07.107Z,60.84
2023-01-29T16:31:50.066Z,61.02
2023-01-29T16:37:21.594Z,60.81
2023-01-29T16:39:50.787Z,61.02
2023-01-29T16:42:20.284Z,60.57
2023-01-29T16:44:47.326Z,60.62
2023-01-29T16:47:26.696Z,60.12
2023-01-29T16:50:19.257Z,60.16
2023-01-29T16:53:05.727Z,60.93
2023-01-29T17:08:25.739Z,60.32
2023-01-29T17:10:53.396Z,60.55
2023-01-29T17:13:35.073Z,59.78
2023-01-29T17:16:25.904Z,60.54
2023-01-29T17:20:19.956Z,60.18
2023-01-29T17:37:47.516Z,60.52
2023-01-29T17:53:44.188Z,60.77
2023-01-29T18:29:14.108Z,59.23
2023-01-29T18:31:41.781Z,59.37
2023-01-29T18:34:09.202Z,59.71
2023-01-29T18:36:36.371Z,59.14
2023-01-29T18:39:03.886Z,59.55
2023-01-29T18:41:31.147Z,59.65
2023-01-29T18:43:58.238Z,59.52
2023-01-29T18:46:25.486Z,59.17
2023-01-29T18:48:52.684Z,59.64
2023-01-29T18:51:19.716Z,59.43
2023-01-29T18:53:51.467Z,59.48
2023-01-29T18:56:19.460Z,59.52
2023-01-29T18:58:55.562Z,59.61
2023-01-29T19:01:24.004Z,59.42
2023-01-29T19:03:51.132Z,59.24
2023-01-29T19:06:18.290Z,59.24
2023-01-29T19:08:46.011Z,59.40
2023-01-29T19:11:15.789Z,59.39
2023-01-29T19:13:43.079Z,59.48
2023-01-29T19:16:12.116Z,59.09
2023-01-29T19:18:39.824Z,59.01
2023-01-29T19:21:10.407Z,59.19
2023-01-29T19:23:38.019Z,59.11
2023-01-29T19:26:06.184Z,59.47
2023-01-29T19:28:33.352Z,59.35
2023-01-29T19:31:01.388Z,59.55
2023-01-29T19:33:29.424Z,59.36
2023-01-29T19:36:00.106Z,59.61
2023-01-29T19:38:27.905Z,59.23
2023-01-29T19:40:55.465Z,58.90
2023-01-29T19:43:22.762Z,59.73
2023-01-29T19:45:51.178Z,59.01
2023-01-29T19:48:22.048Z,58.72
2023-01-29T19:51:00.080Z,59.62
2023-01-29T19:53:31.391Z,59.44
2023-01-29T19:56:00.548Z,59.26
2023-01-29T19:58:28.272Z,58.69
2023-01-29T20:01:00.696Z,59.62
2023-01-29T20:03:29.060Z,58.96
2023-01-29T20:06:02.000Z,58.94
2023-01-29T20:08:29.123Z,59.01
2023-01-29T20:10:56.161Z,59.14
2023-01-29T20:13:23.369Z,59.33
2023-01-29T20:15:52.166Z,59.95
2023-01-29T20:18:19.818Z,59.80
2023-01-29T20:20:49.340Z,58.94
2023-01-29T20:23:35.242Z,59.70
2023-01-29T20:26:04.602Z,59.70
2023-01-29T20:28:31.740Z,59.63
2023-01-29T20:30:59.164Z,59.91
2023-01-29T20:33:26.944Z,59.71
2023-01-29T20:35:55.118Z,59.99
2023-01-29T20:38:22.275Z,60.23
2023-01-29T20:40:49.725Z,60.19
2023-01-29T20:43:16.780Z,59.66
2023-01-29T20:45:43.830Z,60.06
2023-01-29T20:48:10.921Z,59.12
2023-01-29T20:50:37.940Z,59.63
2023-01-29T20:53:05.061Z,61.11
2023-01-29T20:55:32.347Z,59.97
2023-01-29T20:58:05.583Z,59.39
2023-01-29T21:00:33.799Z,59.79
2023-01-29T21:03:00.918Z,59.85
2023-01-29T21:05:28.005Z,60.53
2023-01-29T21:07:55.862Z,60.08
2023-01-29T21:10:22.961Z,60.68
2023-01-29T21:12:50.043Z,60.74
2023-01-29T21:15:17.148Z,60.76
2023-01-29T21:17:44.063Z,60.62
2023-01-29T21:20:11.593Z,60.37
2023-01-29T21:22:39.065Z,59.96
2023-01-29T21:25:06.536Z,59.87
2023-01-29T21:27:33.616Z,59.58
2023-01-29T21:30:01.128Z,59.33
2023-01-29T21:32:30.788Z,59.42
2023-01-29T21:34:57.798Z,59.59
2023-01-29T21:37:24.890Z,59.97
2023-01-29T21:39:52.006Z,59.63
2023-01-29T21:42:37.539Z,60.07
2023-01-29T21:45:04.913Z,60.22
2023-01-29T21:47:32.027Z,59.88
2023-01-29T21:49:59.042Z,59.63
2023-01-29T21:52:26.075Z,60.01
2023-01-29T21:54:53.074Z,60.43
2023-01-29T21:57:20.116Z,60.41
2023-01-29T21:59:52.478Z,60.21
2023-01-29T22:02:22.474Z,60.29
2023-01-29T22:04:50.569Z,60.27
2023-01-29T22:07:17.571Z,60.09
2023-01-29T22:09:44.712Z,60.92
2023-01-29T22:12:12.203Z,60.22
2023-01-29T22:14:39.266Z,60.35
2023-01-29T22:17:06.578Z,60.68
2023-01-29T22:19:33.716Z,60.61
2023-01-29T22:22:00.778Z,60.21
2023-01-29T22:24:27.870Z,60.29
2023-01-29T22:26:54.999Z,59.62
2023-01-29T22:29:22.175Z,60.38
2023-01-29T22:31:49.251Z,60.33
2023-01-29T22:34:16.273Z,60.07
2023-01-29T22:36:43.290Z,60.03
2023-01-29T22:39:10.430Z,60.10
2023-01-29T22:41:37.479Z,60.94
2023-01-29T22:44:04.690Z,61.22
2023-01-29T22:46:31.769Z,61.44
2023-01-29T22:48:58.782Z,61.36
2023-01-29T22:51:25.825Z,60.71
2023-01-29T22:53:54.893Z,60.93
2023-01-29T22:56:27.271Z,61.49
2023-01-29T22:58:56.541Z,61.39
2023-01-29T23:01:26.365Z,60.76
2023-01-29T23:03:53.812Z,60.85
2023-01-29T23:06:23.735Z,61.14
2023-01-29T23:08:51.758Z,61.26
2023-01-29T23:11:21.290Z,60.69
2023-01-29T23:13:51.801Z,60.96
2023-01-29T23:16:21.844Z,61.44
2023-01-29T23:18:51.555Z,61.79
2023-01-29T23:21:19.569Z,61.87
2023-01-29T23:23:47.404Z,61.95
2023-01-29T23:26:33.418Z,62.73
2023-01-29T23:29:00.557Z,62.79
2023-01-29T23:31:27.723Z,62.17
2023-01-29T23:33:54.825Z,62.09
2023-01-29T23:36:22.166Z,62.21
2023-01-29T23:38:49.125Z,61.72
2023-01-29T23:41:16.200Z,62.60
2023-01-29T23:43:43.265Z,62.23
2023-01-29T23:46:10.299Z,61.86
2023-01-29T23:48:37.430Z,62.27
2023-01-29T23:51:04.710Z,62.80
2023-01-29T23:53:31.976Z,62.59
2023-01-29T23:56:04.842Z,62.29
2023-01-29T23:58:33.020Z,61.83
